createdAt,value
2018-07-24T00:00:06.364Z,58.70
2018-07-24T00:01:06.179Z,58.60
2018-07-24T00:02:11.202Z,58.90
2018-07-24T00:03:08.749Z,58.70
2018-07-24T00:04:06.147Z,58.70
2018-07-24T00:05:06.192Z,58.90
2018-07-24T00:06:11.213Z,59.10
2018-07-24T00:07:06.487Z,59.00
2018-07-24T00:08:08.977Z,59.00
2018-07-24T00:09:06.687Z,59.00
2018-07-24T00:10:09.246Z,59.30
2018-07-24T00:11:05.937Z,59.30
2018-07-24T00:12:06.014Z,59.00
2018-07-24T00:13:06.229Z,59.20
2018-07-24T00:14:06.214Z,59.10
2018-07-24T00:15:08.220Z,59.40
2018-07-24T00:16:08.572Z,59.60
2018-07-24T00:17:06.492Z,59.50
2018-07-24T00:18:05.631Z,59.50
2018-07-24T00:19:08.980Z,59.70
2018-07-24T00:20:05.481Z,59.90
2018-07-24T00:21:05.696Z,60.40
2018-07-24T00:22:05.825Z,60.40
2018-07-24T00:23:05.456Z,60.30
2018-07-24T00:24:06.321Z,60.40
2018-07-24T00:25:11.156Z,60.80
2018-07-24T00:26:10.398Z,60.80
2018-07-24T00:27:09.096Z,60.50
2018-07-24T00:28:05.596Z,60.50
2018-07-24T00:29:08.878Z,61.00
2018-07-24T00:30:06.654Z,61.00
2018-07-24T00:31:08.582Z,61.30
2018-07-24T00:32:06.170Z,61.30
2018-07-24T00:33:10.813Z,62.10
2018-07-24T00:34:06.174Z,62.20
2018-07-24T00:35:05.959Z,62.00
2018-07-24T00:36:09.876Z,62.00
2018-07-24T00:37:06.346Z,62.00
2018-07-24T00:38:05.855Z,62.00
2018-07-24T00:39:10.769Z,62.00
2018-07-24T00:40:05.925Z,61.90
2018-07-24T00:41:06.120Z,62.20
2018-07-24T00:42:09.017Z,61.90
2018-07-24T00:43:05.438Z,61.90
2018-07-24T00:44:06.549Z,62.00
2018-07-24T00:45:11.306Z,61.70
2018-07-24T00:46:08.711Z,62.10
2018-07-24T00:47:08.614Z,62.30
2018-07-24T00:48:05.978Z,62.30
2018-07-24T00:49:08.248Z,62.70
2018-07-24T00:50:10.116Z,62.60
2018-07-24T00:51:08.293Z,62.30
2018-07-24T00:52:10.857Z,62.50
2018-07-24T00:53:05.789Z,62.50
2018-07-24T00:54:05.987Z,62.40
2018-07-24T00:55:05.647Z,62.40
2018-07-24T00:56:06.396Z,62.50
2018-07-24T00:57:10.781Z,62.80
2018-07-24T00:58:09.536Z,62.80
2018-07-24T00:59:06.040Z,62.90
2018-07-24T01:00:08.211Z,62.80
2018-07-24T01:01:08.926Z,63.00
2018-07-24T01:02:11.336Z,63.00
2018-07-24T01:03:06.386Z,63.00
2018-07-24T01:04:09.663Z,62.70
2018-07-24T01:05:10.986Z,62.50
2018-07-24T01:06:05.991Z,62.50
2018-07-24T01:07:11.328Z,62.30
2018-07-24T01:08:08.145Z,62.30
2018-07-24T01:09:08.052Z,62.20
2018-07-24T01:10:05.459Z,62.30
2018-07-24T01:11:08.825Z,62.30
2018-07-24T01:12:08.828Z,62.50
2018-07-24T01:13:06.239Z,62.50
2018-07-24T01:14:10.647Z,62.50
2018-07-24T01:15:05.987Z,62.50
2018-07-24T01:16:05.985Z,62.60
2018-07-24T01:17:09.588Z,62.40
2018-07-24T01:18:09.418Z,62.70
2018-07-24T01:19:11.157Z,62.90
2018-07-24T01:20:05.612Z,62.90
2018-07-24T01:21:06.481Z,62.80
2018-07-24T01:22:09.433Z,62.80
2018-07-24T01:23:06.500Z,62.80
2018-07-24T01:24:05.848Z,62.80
2018-07-24T01:25:08.871Z,63.30
2018-07-24T01:26:09.566Z,64.00
2018-07-24T01:27:06.015Z,64.00
2018-07-24T01:28:07.987Z,63.70
2018-07-24T01:29:05.431Z,63.70
2018-07-24T01:30:06.214Z,63.60
2018-07-24T01:31:06.513Z,63.80
2018-07-24T01:32:06.208Z,63.80
2018-07-24T01:33:05.804Z,63.80
2018-07-24T01:34:08.960Z,63.80
2018-07-24T01:35:06.806Z,63.80
2018-07-24T01:36:06.368Z,63.80
2018-07-24T01:37:05.975Z,63.70
2018-07-24T01:38:06.437Z,63.60
2018-07-24T01:39:05.548Z,63.70
2018-07-24T01:40:05.954Z,63.70
2018-07-24T01:41:05.764Z,63.70
2018-07-24T01:42:06.319Z,63.90
2018-07-24T01:43:09.376Z,63.80
2018-07-24T01:44:06.006Z,63.80
2018-07-24T01:45:05.844Z,63.70
2018-07-24T01:46:10.779Z,63.70
2018-07-24T01:47:05.895Z,63.70
2018-07-24T01:48:05.659Z,63.80
2018-07-24T01:49:07.923Z,63.70
2018-07-24T01:50:06.748Z,63.70
2018-07-24T01:51:08.722Z,64.50
2018-07-24T01:52:09.436Z,64.50
2018-07-24T01:53:10.875Z,64.50
2018-07-24T01:54:05.834Z,64.40
2018-07-24T01:55:10.709Z,64.50
2018-07-24T01:56:11.119Z,64.60
2018-07-24T01:57:10.574Z,64.50
2018-07-24T01:58:05.573Z,64.50
2018-07-24T01:59:05.837Z,64.40
2018-07-24T02:00:11.163Z,64.50
2018-07-24T02:01:08.119Z,64.50
2018-07-24T02:02:05.572Z,64.50
2018-07-24T02:03:06.198Z,64.60
2018-07-24T02:04:06.476Z,64.60
2018-07-24T02:05:05.465Z,65.00
2018-07-24T02:06:05.581Z,65.00
2018-07-24T02:07:09.311Z,65.00
2018-07-24T02:08:05.693Z,65.00
2018-07-24T02:09:11.280Z,65.10
2018-07-24T02:10:06.527Z,65.20
2018-07-24T02:11:06.595Z,65.20
2018-07-24T02:12:06.152Z,65.30
2018-07-24T02:13:05.836Z,65.30
2018-07-24T02:14:05.949Z,65.30
2018-07-24T02:15:08.812Z,65.30
2018-07-24T02:16:06.503Z,65.30
2018-07-24T02:17:08.601Z,65.00
2018-07-24T02:18:06.354Z,65.00
2018-07-24T02:19:13.433Z,65.00
2018-07-24T02:20:10.786Z,65.00
2018-07-24T02:21:09.171Z,64.90
2018-07-24T02:22:10.702Z,64.90
2018-07-24T02:23:08.593Z,64.90
2018-07-24T02:24:06.028Z,64.90
2018-07-24T02:25:06.572Z,64.80
2018-07-24T02:26:05.746Z,64.80
2018-07-24T02:27:10.621Z,64.80
2018-07-24T02:28:09.100Z,65.10
2018-07-24T02:29:06.057Z,65.10
2018-07-24T02:30:11.863Z,65.00
2018-07-24T02:31:06.832Z,65.00
2018-07-24T02:32:09.746Z,65.10
2018-07-24T02:33:09.412Z,65.00
2018-07-24T02:34:06.140Z,65.00
2018-07-24T02:35:06.315Z,65.10
2018-07-24T02:36:10.563Z,65.00
2018-07-24T02:37:06.272Z,65.10
2018-07-24T02:38:08.637Z,65.20
2018-07-24T02:39:06.041Z,65.20
2018-07-24T02:40:06.103Z,65.20
2018-07-24T02:41:05.959Z,65.60
2018-07-24T02:42:05.672Z,65.60
2018-07-24T02:43:06.676Z,65.70
2018-07-24T02:44:05.513Z,65.70
2018-07-24T02:45:11.167Z,66.00
2018-07-24T02:46:09.044Z,66.10
2018-07-24T02:47:05.470Z,66.00
2018-07-24T02:48:06.084Z,66.00
2018-07-24T02:49:08.873Z,66.40
2018-07-24T02:50:06.238Z,66.40
2018-07-24T02:51:11.171Z,66.60
2018-07-24T02:52:08.597Z,67.00
2018-07-24T02:53:06.136Z,67.00
2018-07-24T02:54:05.657Z,67.00
2018-07-24T02:55:11.255Z,67.60
2018-07-24T02:56:08.756Z,67.40
2018-07-24T02:57:09.489Z,67.40
2018-07-24T02:58:08.428Z,67.30
2018-07-24T02:59:10.802Z,67.30
2018-07-24T03:00:06.368Z,67.30
2018-07-24T03:01:09.086Z,67.30
2018-07-24T03:02:05.583Z,67.20
2018-07-24T03:03:06.844Z,67.20
2018-07-24T03:04:06.672Z,67.10
2018-07-24T03:05:05.559Z,67.20
2018-07-24T03:06:05.593Z,67.20
2018-07-24T03:07:06.141Z,67.50
2018-07-24T03:08:06.041Z,67.80
2018-07-24T03:09:05.597Z,67.70
2018-07-24T03:10:11.259Z,67.70
2018-07-24T03:11:11.338Z,67.70
2018-07-24T03:12:08.986Z,67.80
2018-07-24T03:13:05.640Z,67.80
2018-07-24T03:14:10.110Z,68.00
2018-07-24T03:15:05.811Z,68.10
2018-07-24T03:16:06.563Z,68.10
2018-07-24T03:17:06.047Z,68.00
2018-07-24T03:18:06.336Z,68.30
2018-07-24T03:19:06.019Z,68.20
2018-07-24T03:20:08.773Z,68.20
2018-07-24T03:21:06.570Z,68.20
2018-07-24T03:22:06.183Z,68.10
2018-07-24T03:23:05.938Z,68.20
2018-07-24T03:24:06.651Z,68.00
2018-07-24T03:25:06.155Z,68.00
2018-07-24T03:26:05.713Z,68.10
2018-07-24T03:27:08.216Z,68.10
2018-07-24T03:28:05.971Z,68.10
2018-07-24T03:29:05.579Z,68.10
2018-07-24T03:30:06.742Z,69.00
2018-07-24T03:31:14.925Z,68.70
2018-07-24T03:32:06.487Z,68.70
2018-07-24T03:33:06.606Z,68.90
2018-07-24T03:34:08.885Z,69.20
2018-07-24T03:35:06.484Z,69.20
2018-07-24T03:36:08.682Z,69.50
2018-07-24T03:37:06.520Z,69.50
2018-07-24T03:38:08.176Z,69.40
2018-07-24T03:39:05.752Z,69.30
2018-07-24T03:40:05.580Z,69.40
2018-07-24T03:41:05.967Z,69.30
2018-07-24T03:42:11.457Z,69.40
2018-07-24T03:43:05.897Z,69.40
2018-07-24T03:44:11.095Z,69.60
2018-07-24T03:45:10.910Z,69.70
2018-07-24T03:46:06.300Z,69.80
2018-07-24T03:47:06.254Z,69.70
2018-07-24T03:48:06.250Z,70.20
2018-07-24T03:49:06.093Z,70.00
2018-07-24T03:50:05.940Z,70.00
2018-07-24T03:51:05.527Z,70.10
2018-07-24T03:52:08.909Z,70.00
2018-07-24T03:53:06.376Z,70.00
2018-07-24T03:54:09.205Z,70.10
2018-07-24T03:55:11.809Z,70.10
2018-07-24T03:56:06.633Z,70.10
2018-07-24T03:57:05.580Z,69.90
2018-07-24T03:58:05.738Z,69.90
2018-07-24T03:59:09.434Z,69.90
2018-07-24T04:00:05.811Z,69.90
2018-07-24T04:01:06.085Z,69.70
2018-07-24T04:02:06.008Z,69.80
2018-07-24T04:03:06.248Z,69.80
2018-07-24T04:04:11.308Z,69.90
2018-07-24T04:05:05.431Z,69.80
2018-07-24T04:06:05.644Z,69.90
2018-07-24T04:07:06.782Z,70.20
2018-07-24T04:08:09.110Z,70.30
2018-07-24T04:09:05.728Z,70.30
2018-07-24T04:10:06.010Z,70.50
2018-07-24T04:11:05.858Z,70.60
2018-07-24T04:12:06.095Z,70.40
2018-07-24T04:13:08.995Z,69.90
2018-07-24T04:14:09.258Z,69.70
2018-07-24T04:15:05.645Z,69.70
2018-07-24T04:16:06.556Z,69.50
2018-07-24T04:17:09.009Z,69.30
2018-07-24T04:18:05.772Z,69.30
2018-07-24T04:19:10.736Z,69.40
2018-07-24T04:20:06.052Z,69.20
2018-07-24T04:21:09.391Z,69.00
2018-07-24T04:22:06.213Z,68.90
2018-07-24T04:23:06.024Z,68.80
2018-07-24T04:24:06.297Z,68.70
2018-07-24T04:25:08.871Z,68.10
2018-07-24T04:26:09.294Z,67.80
2018-07-24T04:27:05.746Z,67.80
2018-07-24T04:28:08.795Z,67.20
2018-07-24T04:29:06.433Z,67.20
2018-07-24T04:30:06.177Z,66.90
2018-07-24T04:31:11.068Z,66.30
2018-07-24T04:32:09.176Z,65.90
2018-07-24T04:33:09.040Z,65.30
2018-07-24T04:34:09.131Z,64.70
2018-07-24T04:35:05.935Z,64.70
2018-07-24T04:36:09.210Z,63.90
2018-07-24T04:37:08.657Z,63.60
2018-07-24T04:38:06.152Z,63.60
2018-07-24T04:39:05.620Z,63.00
2018-07-24T04:40:06.259Z,62.60
2018-07-24T04:41:05.954Z,62.20
2018-07-24T04:42:05.450Z,61.80
2018-07-24T04:43:06.180Z,61.30
2018-07-24T04:44:08.450Z,60.50
2018-07-24T04:45:06.183Z,60.40
2018-07-24T04:46:05.868Z,60.00
2018-07-24T04:47:05.905Z,59.70
2018-07-24T04:48:05.743Z,59.20
2018-07-24T04:49:08.984Z,58.50
2018-07-24T04:50:05.413Z,58.50
2018-07-24T04:51:08.568Z,57.80
2018-07-24T04:52:06.179Z,57.90
2018-07-24T04:53:07.360Z,57.40
2018-07-24T04:54:06.257Z,57.10
2018-07-24T04:55:05.656Z,56.70
2018-07-24T04:56:06.839Z,56.40
2018-07-24T04:57:06.624Z,56.00
2018-07-24T04:58:06.202Z,55.60
2018-07-24T04:59:06.309Z,55.20
2018-07-24T05:00:06.239Z,55.10
2018-07-24T05:01:09.878Z,53.80
2018-07-24T05:02:06.595Z,53.60
2018-07-24T05:03:06.292Z,53.50
2018-07-24T05:04:06.082Z,53.20
2018-07-24T05:05:06.074Z,52.90
2018-07-24T05:06:06.078Z,52.30
2018-07-24T05:07:11.614Z,51.90
2018-07-24T05:08:09.621Z,51.60
2018-07-24T05:09:06.123Z,51.60
2018-07-24T05:10:06.082Z,51.40
2018-07-24T05:11:06.021Z,51.20
2018-07-24T05:12:05.665Z,50.90
2018-07-24T05:13:06.383Z,50.60
2018-07-24T05:14:06.455Z,50.40
2018-07-24T05:15:06.052Z,49.90
2018-07-24T05:16:05.707Z,49.60
2018-07-24T05:17:07.959Z,48.70
2018-07-24T05:18:11.386Z,48.40
2018-07-24T05:19:06.452Z,48.30
2018-07-24T05:20:06.708Z,48.00
2018-07-24T05:21:05.770Z,47.70
2018-07-24T05:22:06.295Z,47.30
2018-07-24T05:23:08.590Z,46.70
2018-07-24T05:24:05.998Z,46.70
2018-07-24T05:25:09.796Z,46.40
2018-07-24T05:26:06.205Z,46.40
2018-07-24T05:27:06.297Z,46.30
2018-07-24T05:28:07.954Z,45.80
2018-07-24T05:29:06.711Z,45.70
2018-07-24T05:30:11.061Z,45.30
2018-07-24T05:31:12.552Z,45.10
2018-07-24T05:32:06.184Z,45.10
2018-07-24T05:33:08.383Z,45.10
2018-07-24T05:34:06.265Z,45.20
2018-07-24T05:35:05.936Z,44.80
2018-07-24T05:36:05.838Z,44.80
2018-07-24T05:37:06.588Z,43.90
2018-07-24T05:38:05.516Z,43.70
2018-07-24T05:39:06.418Z,43.60
2018-07-24T05:40:05.888Z,43.50
2018-07-24T05:41:05.848Z,43.30
2018-07-24T05:42:05.590Z,43.30
2018-07-24T05:43:08.518Z,42.70
2018-07-24T05:44:06.193Z,42.70
2018-07-24T05:45:05.542Z,42.50
2018-07-24T05:46:05.710Z,42.80
2018-07-24T05:47:06.619Z,42.50
2018-07-24T05:48:05.721Z,42.40
2018-07-24T05:49:06.346Z,42.40
2018-07-24T05:50:16.327Z,41.80
2018-07-24T05:51:06.451Z,41.80
2018-07-24T05:52:11.165Z,41.50
2018-07-24T05:53:08.751Z,41.20
2018-07-24T05:54:06.159Z,41.10
2018-07-24T05:55:06.194Z,41.00
2018-07-24T05:56:06.369Z,41.10
2018-07-24T05:57:13.523Z,40.90
2018-07-24T05:58:06.142Z,40.90
2018-07-24T05:59:09.106Z,40.90
2018-07-24T06:00:05.836Z,40.90
2018-07-24T06:01:08.702Z,40.80
2018-07-24T06:02:06.082Z,40.80
2018-07-24T06:03:10.874Z,40.20
2018-07-24T06:04:06.787Z,40.20
2018-07-24T06:05:08.903Z,40.00
2018-07-24T06:06:06.733Z,40.00
2018-07-24T06:07:05.614Z,39.90
2018-07-24T06:08:06.666Z,39.70
2018-07-24T06:09:06.401Z,39.50
2018-07-24T06:10:05.958Z,39.20
2018-07-24T06:11:05.759Z,38.90
2018-07-24T06:12:10.644Z,39.00
2018-07-24T06:13:05.885Z,39.00
2018-07-24T06:14:05.502Z,39.00
2018-07-24T06:15:08.207Z,38.80
2018-07-24T06:16:05.543Z,38.80
2018-07-24T06:17:10.735Z,38.60
2018-07-24T06:18:05.937Z,38.50
2018-07-24T06:19:05.735Z,38.80
2018-07-24T06:20:05.944Z,38.60
2018-07-24T06:21:09.232Z,38.20
2018-07-24T06:22:08.225Z,38.10
2018-07-24T06:23:05.976Z,38.10
2018-07-24T06:24:06.038Z,37.80
2018-07-24T06:25:11.077Z,37.40
2018-07-24T06:26:06.426Z,37.70
2018-07-24T06:27:11.052Z,37.70
2018-07-24T06:28:09.102Z,37.60
2018-07-24T06:29:05.640Z,37.60
2018-07-24T06:30:11.968Z,37.60
2018-07-24T06:31:06.829Z,37.60
2018-07-24T06:32:06.452Z,37.10
2018-07-24T06:33:06.010Z,37.00
2018-07-24T06:34:06.544Z,36.90
2018-07-24T06:35:06.878Z,37.00
2018-07-24T06:36:09.419Z,36.80
2018-07-24T06:37:05.790Z,36.80
2018-07-24T06:38:05.540Z,36.00
2018-07-24T06:39:06.027Z,36.30
2018-07-24T06:40:05.857Z,36.20
2018-07-24T06:41:05.915Z,36.00
2018-07-24T06:42:06.333Z,36.10
2018-07-24T06:43:06.567Z,36.30
2018-07-24T06:44:06.345Z,36.00
2018-07-24T06:45:06.341Z,36.10
2018-07-24T06:46:05.927Z,36.00
2018-07-24T06:47:05.904Z,35.80
2018-07-24T06:48:05.963Z,35.60
2018-07-24T06:49:08.914Z,35.70
2018-07-24T06:50:07.420Z,35.70
2018-07-24T06:51:06.312Z,35.70
2018-07-24T06:52:06.430Z,35.80
2018-07-24T06:53:10.564Z,34.90
2018-07-24T06:54:14.002Z,34.80
2018-07-24T06:55:08.889Z,34.80
2018-07-24T06:56:06.306Z,34.80
2018-07-24T06:57:10.901Z,35.10
2018-07-24T06:58:06.072Z,34.90
2018-07-24T06:59:09.739Z,34.30
2018-07-24T07:00:11.186Z,34.20
2018-07-24T07:01:06.301Z,34.00
2018-07-24T07:02:06.240Z,34.10
2018-07-24T07:03:11.380Z,33.30
2018-07-24T07:04:10.934Z,33.10
2018-07-24T07:05:06.716Z,33.10
2018-07-24T07:06:05.517Z,33.10
2018-07-24T07:07:06.343Z,32.80
2018-07-24T07:08:06.312Z,32.90
2018-07-24T07:09:05.969Z,32.50
2018-07-24T07:10:05.789Z,33.00
2018-07-24T07:11:06.664Z,33.30
2018-07-24T07:12:06.280Z,33.30
2018-07-24T07:13:05.874Z,33.50
2018-07-24T07:14:11.588Z,33.40
2018-07-24T07:15:05.919Z,33.30
2018-07-24T07:16:05.454Z,33.30
2018-07-24T07:17:06.258Z,33.10
2018-07-24T07:18:06.161Z,32.80
2018-07-24T07:19:06.165Z,32.80
2018-07-24T07:20:08.339Z,32.20
2018-07-24T07:21:05.720Z,32.10
2018-07-24T07:22:06.483Z,31.30
2018-07-24T07:23:06.096Z,31.50
2018-07-24T07:24:05.635Z,31.30
2018-07-24T07:25:05.659Z,31.10
2018-07-24T07:26:08.876Z,30.70
2018-07-24T07:27:08.956Z,31.00
2018-07-24T07:28:06.378Z,31.00
2018-07-24T07:29:06.146Z,30.80
2018-07-24T07:30:06.850Z,30.30
2018-07-24T07:31:09.428Z,30.90
2018-07-24T07:32:08.541Z,30.80
2018-07-24T07:33:05.892Z,30.80
2018-07-24T07:34:10.906Z,30.80
2018-07-24T07:35:06.123Z,31.40
2018-07-24T07:36:11.411Z,30.50
2018-07-24T07:37:06.115Z,31.20
2018-07-24T07:38:05.607Z,31.10
2018-07-24T07:39:06.400Z,30.90
2018-07-24T07:40:06.095Z,30.90
2018-07-24T07:41:11.353Z,30.80
2018-07-24T07:42:13.301Z,30.60
2018-07-24T07:43:06.117Z,30.50
2018-07-24T07:44:06.247Z,30.90
2018-07-24T07:45:05.979Z,30.30
2018-07-24T07:46:05.552Z,30.00
2018-07-24T07:47:06.119Z,30.20
2018-07-24T07:48:05.458Z,30.60
2018-07-24T07:49:11.135Z,29.90
2018-07-24T07:50:06.545Z,29.90
2018-07-24T07:51:06.294Z,30.20
2018-07-24T07:52:05.987Z,30.00
2018-07-24T07:53:05.637Z,30.30
2018-07-24T07:54:08.696Z,31.20
2018-07-24T07:55:09.505Z,30.30
2018-07-24T07:56:06.174Z,30.20
2018-07-24T07:57:05.489Z,29.90
2018-07-24T07:58:06.397Z,30.10
2018-07-24T07:59:05.859Z,29.90
2018-07-24T08:00:06.037Z,30.30
2018-07-24T08:01:08.877Z,30.80
2018-07-24T08:02:06.334Z,30.80
2018-07-24T08:03:10.737Z,30.50
2018-07-24T08:04:08.565Z,30.50
2018-07-24T08:05:06.412Z,30.50
2018-07-24T08:06:09.354Z,31.00
2018-07-24T08:07:05.748Z,31.00
2018-07-24T08:08:10.683Z,30.70
2018-07-24T08:09:09.297Z,30.80
2018-07-24T08:10:05.821Z,30.80
2018-07-24T08:11:06.261Z,30.90
2018-07-24T08:12:05.779Z,30.90
2018-07-24T08:13:09.630Z,31.60
2018-07-24T08:14:06.155Z,31.60
2018-07-24T08:15:11.181Z,30.40
2018-07-24T08:16:05.500Z,30.30
2018-07-24T08:17:10.590Z,30.20
2018-07-24T08:18:08.131Z,30.50
2018-07-24T08:19:05.534Z,30.40
2018-07-24T08:20:05.642Z,30.00
2018-07-24T08:21:09.210Z,30.80
2018-07-24T08:22:05.617Z,30.90
2018-07-24T08:23:06.619Z,30.90
2018-07-24T08:24:08.286Z,30.60
2018-07-24T08:25:05.664Z,30.60
2018-07-24T08:26:09.777Z,30.10
2018-07-24T08:27:06.337Z,30.10
2018-07-24T08:28:06.535Z,29.50
2018-07-24T08:29:06.105Z,29.80
2018-07-24T08:30:05.836Z,29.50
2018-07-24T08:31:06.011Z,29.60
2018-07-24T08:32:08.057Z,30.20
2018-07-24T08:33:08.929Z,29.70
2018-07-24T08:34:06.483Z,29.70
2018-07-24T08:35:08.937Z,29.50
2018-07-24T08:36:05.733Z,29.60
2018-07-24T08:37:08.820Z,29.00
2018-07-24T08:38:06.177Z,29.00
2018-07-24T08:39:10.954Z,29.00
2018-07-24T08:40:06.131Z,28.90
2018-07-24T08:41:09.552Z,29.40
2018-07-24T08:42:06.183Z,29.40
2018-07-24T08:43:05.599Z,29.60
2018-07-24T08:44:09.493Z,29.60
2018-07-24T08:45:05.971Z,29.60
2018-07-24T08:46:06.061Z,29.60
2018-07-24T08:47:05.581Z,29.80
2018-07-24T08:48:06.342Z,29.00
2018-07-24T08:49:05.866Z,29.30
2018-07-24T08:50:05.452Z,28.50
2018-07-24T08:51:10.185Z,28.50
2018-07-24T08:52:08.146Z,28.20
2018-07-24T08:53:05.837Z,28.20
2018-07-24T08:54:11.812Z,29.00
2018-07-24T08:55:06.626Z,28.60
2018-07-24T08:56:06.510Z,28.60
2018-07-24T08:57:07.313Z,28.80
2018-07-24T08:58:05.919Z,28.80
2018-07-24T08:59:05.700Z,28.50
2018-07-24T09:00:06.650Z,27.90
2018-07-24T09:01:06.159Z,28.20
2018-07-24T09:02:05.658Z,27.90
2018-07-24T09:03:06.118Z,28.40
2018-07-24T09:04:10.833Z,28.90
2018-07-24T09:05:06.040Z,28.90
2018-07-24T09:06:05.586Z,28.80
2018-07-24T09:07:06.252Z,29.00
2018-07-24T09:08:05.506Z,29.00
2018-07-24T09:09:11.246Z,28.90
2018-07-24T09:10:05.727Z,28.60
2018-07-24T09:11:05.401Z,28.50
2018-07-24T09:12:05.677Z,28.80
2018-07-24T09:13:05.554Z,28.90
2018-07-24T09:14:05.456Z,28.60
2018-07-24T09:15:09.092Z,28.40
2018-07-24T09:16:05.903Z,28.50
2018-07-24T09:17:10.688Z,28.90
2018-07-24T09:18:06.110Z,28.90
2018-07-24T09:19:05.618Z,28.70
2018-07-24T09:20:11.123Z,28.20
2018-07-24T09:21:05.839Z,28.10
2018-07-24T09:22:05.983Z,27.90
2018-07-24T09:23:05.937Z,28.20
2018-07-24T09:24:08.393Z,27.90
2018-07-24T09:25:05.742Z,27.90
2018-07-24T09:26:06.258Z,27.10
2018-07-24T09:27:06.519Z,27.70
2018-07-24T09:28:08.030Z,27.10
2018-07-24T09:29:05.462Z,27.10
2018-07-24T09:30:11.302Z,27.80
2018-07-24T09:31:08.716Z,28.00
2018-07-24T09:32:09.724Z,28.40
2018-07-24T09:33:06.211Z,28.40
2018-07-24T09:34:08.274Z,28.20
2018-07-24T09:35:05.740Z,28.20
2018-07-24T09:36:11.160Z,28.20
2018-07-24T09:37:06.094Z,28.50
2018-07-24T09:38:06.135Z,29.10
2018-07-24T09:39:05.705Z,29.10
2018-07-24T09:40:05.435Z,28.90
2018-07-24T09:41:05.465Z,28.00
2018-07-24T09:42:06.009Z,27.80
2018-07-24T09:43:06.018Z,28.10
2018-07-24T09:44:06.076Z,28.10
2018-07-24T09:45:05.907Z,28.40
2018-07-24T09:46:05.408Z,28.60
2018-07-24T09:47:06.117Z,29.10
2018-07-24T09:48:05.777Z,27.70
2018-07-24T09:49:05.961Z,27.60
2018-07-24T09:50:09.195Z,27.50
2018-07-24T09:51:06.044Z,27.50
2018-07-24T09:52:06.568Z,27.70
2018-07-24T09:53:06.148Z,27.60
2018-07-24T09:54:05.952Z,27.70
2018-07-24T09:55:06.361Z,27.50
2018-07-24T09:56:06.181Z,26.70
2018-07-24T09:57:05.726Z,27.10
2018-07-24T09:58:06.369Z,27.50
2018-07-24T09:59:06.767Z,27.50
2018-07-24T10:00:05.937Z,27.20
2018-07-24T10:01:05.651Z,27.60
2018-07-24T10:02:06.328Z,27.30
2018-07-24T10:03:08.609Z,26.40
2018-07-24T10:04:08.500Z,26.20
2018-07-24T10:05:06.010Z,25.80
2018-07-24T10:06:08.804Z,25.80
2018-07-24T10:07:11.213Z,25.80
2018-07-24T10:08:09.230Z,25.70
2018-07-24T10:09:06.033Z,25.70
2018-07-24T10:10:06.152Z,25.90
2018-07-24T10:11:06.736Z,26.20
2018-07-24T10:12:10.793Z,26.10
2018-07-24T10:13:06.622Z,26.10
2018-07-24T10:14:06.347Z,26.60
2018-07-24T10:15:10.473Z,26.30
2018-07-24T10:16:06.788Z,25.50
2018-07-24T10:17:06.389Z,25.10
2018-07-24T10:18:05.873Z,25.50
2018-07-24T10:19:05.410Z,25.80
2018-07-24T10:20:06.188Z,25.80
2018-07-24T10:21:06.114Z,26.00
2018-07-24T10:22:05.685Z,26.50
2018-07-24T10:23:10.155Z,26.40
2018-07-24T10:24:05.563Z,26.40
2018-07-24T10:25:10.881Z,26.10
2018-07-24T10:26:06.389Z,26.10
2018-07-24T10:27:05.909Z,25.60
2018-07-24T10:28:10.663Z,25.90
2018-07-24T10:29:08.198Z,25.80
2018-07-24T10:30:06.133Z,25.90
2018-07-24T10:31:05.970Z,25.60
2018-07-24T10:32:06.206Z,25.20
2018-07-24T10:33:05.881Z,24.50
2018-07-24T10:34:09.439Z,24.80
2018-07-24T10:35:10.833Z,24.70
2018-07-24T10:36:08.643Z,24.80
2018-07-24T10:37:05.981Z,24.80
2018-07-24T10:38:06.017Z,24.70
2018-07-24T10:39:06.026Z,24.50
2018-07-24T10:40:06.016Z,24.10
2018-07-24T10:41:05.932Z,24.50
2018-07-24T10:42:11.356Z,25.20
2018-07-24T10:43:05.693Z,25.30
2018-07-24T10:44:06.819Z,25.20
2018-07-24T10:45:05.545Z,25.40
2018-07-24T10:46:06.075Z,25.30
2018-07-24T10:47:06.846Z,25.50
2018-07-24T10:48:05.690Z,25.00
2018-07-24T10:49:11.173Z,24.60
2018-07-24T10:50:05.673Z,24.50
2018-07-24T10:51:08.584Z,24.60
2018-07-24T10:52:10.477Z,24.40
2018-07-24T10:53:05.949Z,24.40
2018-07-24T10:54:05.421Z,24.80
2018-07-24T10:55:06.064Z,24.50
2018-07-24T10:56:06.049Z,24.70
2018-07-24T10:57:09.117Z,25.00
2018-07-24T10:58:06.501Z,24.50
2018-07-24T10:59:08.752Z,24.40
2018-07-24T11:00:09.581Z,24.70
2018-07-24T11:01:08.582Z,24.00
2018-07-24T11:02:08.524Z,24.50
2018-07-24T11:03:05.941Z,24.50
2018-07-24T11:04:06.557Z,24.40
2018-07-24T11:05:06.202Z,24.70
2018-07-24T11:06:05.853Z,24.70
2018-07-24T11:07:11.080Z,24.50
2018-07-24T11:08:06.361Z,24.90
2018-07-24T11:09:06.197Z,24.50
2018-07-24T11:10:09.260Z,24.70
2018-07-24T11:11:05.945Z,24.20
2018-07-24T11:12:06.428Z,24.80
2018-07-24T11:13:05.743Z,25.30
2018-07-24T11:14:09.113Z,26.10
2018-07-24T11:15:05.791Z,26.10
2018-07-24T11:16:05.820Z,26.00
2018-07-24T11:17:14.736Z,25.40
2018-07-24T11:18:11.302Z,25.40
2018-07-24T11:19:05.684Z,24.50
2018-07-24T11:20:06.375Z,23.90
2018-07-24T11:21:05.903Z,23.40
2018-07-24T11:22:11.547Z,23.70
2018-07-24T11:23:11.710Z,23.80
2018-07-24T11:24:06.168Z,24.00
2018-07-24T11:25:10.745Z,23.10
2018-07-24T11:26:05.699Z,23.20
2018-07-24T11:27:05.665Z,22.90
2018-07-24T11:28:09.121Z,23.20
2018-07-24T11:29:06.758Z,23.20
2018-07-24T11:30:06.410Z,23.40
2018-07-24T11:31:09.010Z,23.10
2018-07-24T11:32:05.704Z,23.10
2018-07-24T11:33:11.308Z,23.70
2018-07-24T11:34:05.769Z,23.70
2018-07-24T11:35:07.946Z,23.80
2018-07-24T11:36:11.536Z,23.80
2018-07-24T11:37:05.491Z,23.60
2018-07-24T11:38:05.606Z,23.90
2018-07-24T11:39:08.628Z,23.80
2018-07-24T11:40:05.967Z,23.80
2018-07-24T11:41:05.779Z,24.00
2018-07-24T11:42:08.065Z,23.60
2018-07-24T11:43:05.783Z,23.60
2018-07-24T11:44:06.197Z,24.00
2018-07-24T11:45:06.216Z,24.50
2018-07-24T11:46:06.349Z,24.00
2018-07-24T11:47:06.763Z,23.80
2018-07-24T11:48:06.361Z,22.70
2018-07-24T11:49:10.707Z,22.40
2018-07-24T11:50:06.134Z,22.80
2018-07-24T11:51:05.911Z,22.90
2018-07-24T11:52:10.999Z,22.70
2018-07-24T11:53:10.535Z,22.70
2018-07-24T11:54:10.885Z,22.90
2018-07-24T11:55:11.079Z,22.90
2018-07-24T11:56:16.462Z,23.10
2018-07-24T11:57:05.852Z,23.10
2018-07-24T11:58:05.894Z,22.90
2018-07-24T11:59:06.259Z,23.20
2018-07-24T12:00:05.612Z,23.10
2018-07-24T12:01:09.784Z,22.80
2018-07-24T12:02:06.152Z,22.80
2018-07-24T12:03:06.027Z,23.10
2018-07-24T12:04:05.662Z,23.30
2018-07-24T12:05:06.535Z,23.40
2018-07-24T12:06:09.180Z,24.00
2018-07-24T12:07:05.564Z,24.00
2018-07-24T12:08:10.917Z,22.80
2018-07-24T12:09:06.162Z,22.80
2018-07-24T12:10:05.826Z,22.80
2018-07-24T12:11:06.068Z,22.70
2018-07-24T12:12:05.959Z,22.80
2018-07-24T12:13:06.110Z,23.00
2018-07-24T12:14:06.387Z,23.40
2018-07-24T12:15:11.147Z,23.00
2018-07-24T12:16:05.949Z,23.00
2018-07-24T12:17:06.756Z,22.90
2018-07-24T12:18:05.981Z,22.90
2018-07-24T12:19:08.959Z,23.30
2018-07-24T12:20:05.535Z,23.30
2018-07-24T12:21:06.503Z,23.20
2018-07-24T12:22:06.184Z,22.60
2018-07-24T12:23:11.059Z,22.50
2018-07-24T12:24:09.304Z,22.40
2018-07-24T12:25:05.760Z,22.50
2018-07-24T12:26:09.246Z,23.60
2018-07-24T12:27:09.334Z,24.00
2018-07-24T12:28:06.089Z,23.90
2018-07-24T12:29:06.255Z,23.50
2018-07-24T12:30:06.384Z,23.60
2018-07-24T12:31:05.518Z,23.80
2018-07-24T12:32:09.960Z,23.60
2018-07-24T12:33:06.706Z,23.70
2018-07-24T12:34:08.908Z,23.40
2018-07-24T12:35:10.652Z,23.40
2018-07-24T12:36:06.575Z,23.80
2018-07-24T12:37:06.150Z,23.90
2018-07-24T12:38:09.770Z,23.40
2018-07-24T12:39:08.851Z,23.10
2018-07-24T12:40:09.262Z,23.10
2018-07-24T12:41:05.677Z,22.70
2018-07-24T12:42:05.586Z,22.70
2018-07-24T12:43:10.572Z,23.00
2018-07-24T12:44:05.953Z,23.40
2018-07-24T12:45:09.242Z,22.60
2018-07-24T12:46:08.947Z,22.40
2018-07-24T12:47:05.365Z,22.30
2018-07-24T12:48:06.263Z,22.00
2018-07-24T12:49:05.931Z,21.80
2018-07-24T12:50:05.607Z,21.50
2018-07-24T12:51:05.618Z,22.00
2018-07-24T12:52:05.910Z,21.80